createdAt,value
2023-04-18T00:00:41.206Z,24.20
2023-04-18T00:03:27.088Z,27.30
2023-04-18T00:06:12.945Z,23.73
2023-04-18T00:08:57.366Z,18.77
2023-04-18T00:11:41.439Z,26.27
2023-04-18T00:14:25.316Z,27.83
2023-04-18T00:17:10.478Z,24.03
2023-04-18T00:19:56.574Z,31.57
2023-04-18T00:22:42.630Z,31.80
2023-04-18T00:25:26.970Z,24.17
2023-04-18T00:28:11.123Z,21.00
2023-04-18T00:30:55.087Z,19.67
2023-04-18T00:33:38.887Z,20.13
2023-04-18T00:36:24.081Z,24.27
2023-04-18T00:39:08.064Z,20.13
2023-04-18T00:41:52.017Z,18.90
2023-04-18T00:44:35.808Z,22.60
2023-04-18T00:47:19.921Z,20.83
2023-04-18T00:50:04.173Z,21.93
2023-04-18T00:52:50.104Z,21.67
2023-04-18T00:55:34.320Z,29.00
2023-04-18T00:58:20.101Z,20.73
2023-04-18T01:01:04.140Z,21.13
2023-04-18T01:03:48.246Z,20.57
2023-04-18T01:06:32.254Z,23.30
2023-04-18T01:09:17.467Z,26.50
2023-04-18T01:12:01.978Z,27.50
2023-04-18T01:14:45.823Z,26.63
2023-04-18T01:17:29.771Z,24.53
2023-04-18T01:20:16.944Z,26.20
2023-04-18T01:23:01.330Z,21.53
2023-04-18T01:25:47.090Z,24.50
2023-04-18T01:28:31.001Z,22.87
2023-04-18T01:31:14.903Z,29.70
2023-04-18T01:33:58.789Z,30.77
2023-04-18T01:36:42.676Z,20.13
2023-04-18T01:39:29.303Z,18.73
2023-04-18T01:42:14.605Z,22.37
2023-04-18T01:44:58.556Z,21.60
2023-04-18T01:47:42.524Z,17.80
2023-04-18T01:50:29.189Z,23.73
2023-04-18T01:53:13.021Z,22.43
2023-04-18T01:55:57.802Z,24.27
2023-04-18T01:58:43.005Z,19.33
2023-04-18T02:01:26.984Z,18.50
2023-04-18T02:04:10.928Z,22.07
2023-04-18T02:06:55.495Z,25.53
2023-04-18T02:09:39.431Z,17.90
2023-04-18T02:12:23.687Z,23.27
2023-04-18T02:15:10.703Z,20.70
2023-04-18T02:17:55.445Z,27.57
2023-04-18T02:20:40.704Z,23.90
2023-04-18T02:23:24.691Z,23.07
2023-04-18T02:26:08.595Z,26.20
2023-04-18T02:28:52.758Z,24.77
2023-04-18T02:31:41.770Z,26.67
2023-04-18T02:34:25.829Z,25.73
2023-04-18T02:37:09.785Z,25.83
2023-04-18T02:39:55.358Z,20.43
2023-04-18T02:42:39.191Z,24.03
2023-04-18T02:45:23.224Z,27.73
2023-04-18T02:48:08.947Z,22.17
2023-04-18T02:50:53.056Z,26.07
2023-04-18T02:53:37.014Z,25.00
2023-04-18T02:56:20.899Z,24.63
2023-04-18T02:59:23.301Z,26.70
2023-04-18T03:02:25.788Z,24.30
2023-04-18T03:05:16.707Z,23.10
2023-04-18T03:08:01.017Z,20.90
2023-04-18T03:10:45.665Z,23.40
2023-04-18T03:13:29.820Z,25.90
2023-04-18T03:16:14.885Z,28.10
2023-04-18T03:19:00.013Z,26.40
2023-04-18T03:21:45.689Z,24.40
2023-04-18T03:24:29.708Z,22.93
2023-04-18T03:27:17.060Z,23.20
2023-04-18T03:30:02.675Z,23.97
2023-04-18T03:32:50.110Z,19.20
2023-04-18T03:35:34.113Z,22.43
2023-04-18T03:38:19.456Z,23.47
2023-04-18T03:41:03.269Z,30.00
2023-04-18T03:43:51.035Z,29.97
2023-04-18T03:46:35.155Z,23.70
2023-04-18T03:49:20.010Z,21.50
2023-04-18T03:52:04.713Z,28.60
2023-04-18T03:54:50.294Z,29.97
2023-04-18T03:57:36.992Z,23.90
2023-04-18T04:00:25.311Z,25.83
2023-04-18T04:03:16.677Z,25.47
2023-04-18T04:06:03.518Z,23.10
2023-04-18T04:08:47.432Z,19.67
2023-04-18T04:11:37.381Z,27.53
2023-04-18T04:14:24.668Z,20.23
2023-04-18T04:17:10.568Z,20.23
2023-04-18T04:19:56.135Z,26.73
2023-04-18T04:22:40.117Z,26.40
2023-04-18T04:25:24.818Z,23.57
2023-04-18T04:28:13.328Z,21.13
2023-04-18T04:31:10.333Z,20.40
2023-04-18T04:33:55.370Z,19.40
2023-04-18T04:36:41.331Z,26.27
2023-04-18T04:39:28.270Z,22.77
2023-04-18T04:42:49.222Z,22.93
2023-04-18T04:45:41.581Z,23.93
2023-04-18T04:48:25.682Z,27.50
2023-04-18T04:51:10.850Z,34.83
2023-04-18T04:53:54.732Z,25.03
2023-04-18T04:56:39.437Z,22.33
2023-04-18T04:59:23.668Z,18.47
2023-04-18T05:02:09.168Z,19.50
2023-04-18T05:04:53.401Z,22.60
2023-04-18T05:07:37.260Z,22.33
2023-04-18T05:10:21.821Z,20.20
2023-04-18T05:13:05.750Z,19.40
2023-04-18T05:15:49.694Z,26.90
2023-04-18T05:18:35.113Z,28.70
2023-04-18T05:21:19.058Z,26.73
2023-04-18T05:24:02.930Z,21.07
2023-04-18T05:26:46.785Z,22.17
2023-04-18T05:29:30.664Z,21.40
2023-04-18T05:32:14.872Z,23.00
2023-04-18T05:35:00.502Z,30.93
2023-04-18T05:37:44.514Z,26.90
2023-04-18T05:40:28.569Z,19.73
2023-04-18T05:43:12.761Z,18.37
2023-04-18T05:45:58.082Z,20.90
2023-04-18T05:48:42.086Z,23.33
2023-04-18T05:51:28.748Z,20.87
2023-04-18T05:54:12.969Z,20.83
2023-04-18T05:56:58.776Z,19.50
2023-04-18T05:59:42.689Z,13.97
2023-04-18T06:02:27.186Z,16.27
2023-04-18T06:05:11.670Z,13.90
2023-04-18T06:07:57.468Z,18.07
2023-04-18T06:10:41.441Z,19.30
2023-04-18T06:13:26.780Z,20.03
2023-04-18T06:16:10.588Z,16.23
2023-04-18T06:18:55.095Z,22.60
2023-04-18T06:21:39.908Z,20.23
2023-04-18T06:24:25.262Z,20.90
2023-04-18T06:27:17.534Z,20.63
2023-04-18T06:30:06.137Z,13.33
2023-04-18T06:32:50.686Z,17.50
2023-04-18T06:35:35.083Z,16.10
2023-04-18T06:38:19.769Z,24.73
2023-04-18T06:41:05.487Z,18.33
2023-04-18T06:44:02.823Z,14.83
2023-04-18T06:46:48.249Z,19.27
2023-04-18T06:49:32.497Z,13.93
2023-04-18T06:52:16.776Z,18.07
2023-04-18T06:55:00.894Z,14.10
2023-04-18T06:57:46.330Z,17.57
2023-04-18T07:00:30.397Z,15.77
2023-04-18T07:03:14.669Z,20.07
2023-04-18T07:05:58.733Z,14.87
2023-04-18T07:08:42.863Z,12.20
2023-04-18T07:11:27.226Z,12.57
2023-04-18T07:14:13.317Z,13.60
2023-04-18T07:16:57.741Z,13.97
2023-04-18T07:19:42.399Z,11.43
2023-04-18T07:22:26.265Z,15.87
2023-04-18T07:25:10.818Z,19.43
2023-04-18T07:27:54.647Z,16.37
2023-04-18T07:30:39.855Z,12.80
2023-04-18T07:33:23.743Z,13.03
2023-04-18T07:36:08.307Z,11.57
2023-04-18T07:38:52.595Z,13.40
2023-04-18T07:41:36.773Z,20.07
2023-04-18T07:44:21.575Z,11.57
2023-04-18T07:47:10.473Z,15.87
2023-04-18T07:49:54.314Z,18.50
2023-04-18T07:52:39.392Z,17.50
2023-04-18T07:55:23.665Z,8.87
2023-04-18T07:58:07.551Z,8.47
2023-04-18T08:00:51.379Z,13.57
2023-04-18T08:03:37.264Z,15.13
2023-04-18T08:06:21.572Z,10.85
2023-04-18T08:09:05.713Z,9.23
2023-04-18T08:11:49.645Z,7.20
2023-04-18T08:14:33.661Z,20.65
2023-04-18T08:17:17.583Z,23.67
2023-04-18T08:20:06.925Z,13.15
2023-04-18T08:25:41.206Z,13.65
2023-04-18T08:28:25.029Z,13.63
2023-04-18T08:31:13.486Z,31.40
2023-04-18T08:33:57.460Z,24.33
2023-04-18T08:36:42.789Z,67.17
2023-04-18T08:39:26.666Z,13.97
2023-04-18T08:42:11.864Z,19.13
2023-04-18T08:44:56.134Z,17.70
2023-04-18T08:47:40.004Z,14.50
2023-04-18T08:50:24.064Z,12.33
2023-04-18T08:53:09.550Z,16.00
2023-04-18T08:55:55.285Z,17.77
2023-04-18T08:58:39.049Z,20.93
2023-04-18T09:01:23.068Z,22.67
2023-04-18T09:04:08.029Z,21.30
2023-04-18T09:06:53.799Z,15.80
2023-04-18T09:09:47.906Z,19.90
2023-04-18T09:12:32.788Z,18.53
2023-04-18T09:15:19.140Z,17.70
2023-04-18T09:18:03.555Z,17.65
2023-04-18T09:20:49.901Z,16.08
2023-04-18T09:23:33.816Z,17.37
2023-04-18T09:26:33.936Z,16.35
2023-04-18T09:29:18.690Z,21.83
2023-04-18T09:32:03.264Z,18.63
2023-04-18T09:34:47.350Z,17.98
2023-04-18T09:37:31.203Z,14.98
2023-04-18T09:40:18.156Z,22.45
2023-04-18T09:43:19.378Z,16.70
2023-04-18T09:46:04.897Z,13.65
2023-04-18T09:48:48.819Z,15.95
2023-04-18T09:51:34.380Z,14.23
2023-04-18T09:54:19.867Z,17.50
2023-04-18T09:57:07.537Z,16.60
2023-04-18T09:59:56.306Z,14.85
2023-04-18T10:02:49.012Z,12.65
2023-04-18T10:05:34.914Z,16.23
2023-04-18T10:08:19.097Z,15.82
2023-04-18T10:11:03.144Z,11.60
2023-04-18T10:13:50.613Z,9.67
2023-04-18T10:16:37.591Z,12.50
2023-04-18T10:19:24.261Z,14.50
2023-04-18T10:22:08.333Z,13.20
2023-04-18T10:24:57.142Z,11.43
2023-04-18T10:28:00.504Z,12.52
2023-04-18T10:31:03.023Z,14.15
2023-04-18T10:34:00.746Z,19.88
2023-04-18T10:37:06.279Z,10.95
2023-04-18T10:39:58.624Z,10.82
2023-04-18T10:43:01.026Z,9.77
2023-04-18T10:45:45.034Z,10.90
2023-04-18T10:48:31.390Z,9.15
2023-04-18T10:51:19.115Z,11.55
2023-04-18T10:54:04.952Z,10.15
2023-04-18T10:56:55.394Z,13.27
2023-04-18T10:59:41.195Z,11.68
2023-04-18T11:02:28.910Z,16.58
2023-04-18T11:05:13.818Z,11.60
2023-04-18T11:07:59.007Z,14.10
2023-04-18T11:10:42.904Z,6.15
2023-04-18T11:13:26.976Z,8.25
2023-04-18T11:16:10.814Z,9.85
2023-04-18T11:18:55.108Z,8.10
2023-04-18T11:21:38.978Z,10.40
2023-04-18T11:24:25.137Z,8.65
2023-04-18T11:27:11.142Z,7.82
2023-04-18T11:29:55.855Z,10.77
2023-04-18T11:32:40.095Z,11.02
2023-04-18T11:35:24.258Z,5.88
2023-04-18T11:38:09.031Z,5.75
2023-04-18T11:40:54.285Z,12.00
2023-04-18T11:43:38.278Z,39.72
2023-04-18T11:46:22.127Z,6.20
2023-04-18T11:49:06.199Z,7.00
2023-04-18T11:51:49.942Z,8.48
2023-04-18T11:54:38.682Z,9.82
2023-04-18T11:57:26.461Z,5.03
2023-04-18T12:00:12.564Z,6.45
2023-04-18T12:02:57.001Z,8.15
2023-04-18T12:05:41.220Z,10.55
2023-04-18T12:08:26.860Z,9.50
2023-04-18T12:11:10.796Z,4.95
2023-04-18T12:13:58.158Z,10.88
2023-04-18T12:16:43.173Z,9.48
2023-04-18T12:19:28.801Z,9.68
2023-04-18T12:22:16.930Z,8.20
2023-04-18T12:25:10.541Z,7.13
2023-04-18T12:27:58.044Z,8.55
2023-04-18T12:30:43.844Z,10.25
2023-04-18T12:33:28.020Z,6.40
2023-04-18T12:36:11.852Z,8.93
2023-04-18T12:38:56.031Z,8.60
2023-04-18T12:41:39.854Z,5.22
2023-04-18T12:44:24.692Z,3.72
2023-04-18T12:47:10.774Z,7.00
2023-04-18T12:49:54.619Z,6.45
2023-04-18T12:52:40.869Z,5.30
2023-04-18T12:55:25.947Z,5.95
2023-04-18T12:58:09.919Z,7.85
2023-04-18T13:00:53.855Z,10.88
2023-04-18T13:03:39.233Z,5.93
2023-04-18T13:06:24.534Z,7.80
2023-04-18T13:09:09.257Z,8.55
2023-04-18T13:11:53.096Z,11.00
2023-04-18T13:14:36.934Z,6.88
2023-04-18T13:17:21.006Z,5.68
2023-04-18T13:20:07.561Z,8.05
2023-04-18T13:22:51.422Z,6.65
2023-04-18T13:25:35.477Z,8.40
2023-04-18T13:28:19.244Z,15.82
2023-04-18T13:31:03.219Z,11.13
2023-04-18T13:33:47.010Z,14.25
2023-04-18T13:36:34.834Z,9.68
2023-04-18T13:39:19.249Z,11.93
2023-04-18T13:42:04.567Z,10.50
2023-04-18T13:44:48.559Z,14.10
2023-04-18T13:47:32.552Z,15.88
2023-04-18T13:50:16.618Z,11.73
2023-04-18T13:53:01.993Z,14.98
2023-04-18T13:55:46.018Z,15.48
2023-04-18T13:58:29.927Z,14.25
2023-04-18T14:01:14.199Z,12.02
2023-04-18T14:03:58.254Z,16.33
2023-04-18T14:06:42.458Z,13.88
2023-04-18T14:09:28.327Z,11.13
2023-04-18T14:12:12.540Z,10.98
2023-04-18T14:14:56.370Z,11.85
2023-04-18T14:17:40.397Z,16.20
2023-04-18T14:20:24.402Z,12.60
2023-04-18T14:23:08.165Z,11.48
2023-04-18T14:25:53.357Z,9.30
2023-04-18T14:28:37.216Z,10.80
2023-04-18T14:31:21.197Z,12.90
2023-04-18T14:34:05.684Z,12.45
2023-04-18T14:36:49.481Z,13.45
2023-04-18T14:39:33.400Z,12.02
2023-04-18T14:42:19.965Z,11.23
2023-04-18T14:45:05.262Z,15.32
2023-04-18T14:47:49.270Z,15.15
2023-04-18T14:50:33.187Z,15.40
2023-04-18T14:53:17.126Z,16.60
2023-04-18T14:56:01.229Z,17.98
2023-04-18T14:58:46.634Z,18.35
2023-04-18T15:01:30.473Z,21.17
2023-04-18T15:04:14.915Z,14.68
2023-04-18T15:06:59.039Z,16.45
2023-04-18T15:09:42.981Z,16.80
2023-04-18T15:12:26.860Z,16.63
2023-04-18T15:15:12.935Z,15.35
2023-04-18T15:17:56.866Z,12.00
2023-04-18T15:20:41.083Z,16.95
2023-04-18T15:23:24.962Z,14.15
2023-04-18T15:26:08.914Z,13.00
2023-04-18T15:28:55.635Z,10.60
2023-04-18T15:31:40.862Z,9.98
2023-04-18T15:34:25.616Z,11.60
2023-04-18T15:37:09.600Z,4.25
2023-04-18T15:39:53.605Z,5.75
2023-04-18T15:42:37.543Z,6.82
2023-04-18T15:45:21.954Z,6.10
2023-04-18T15:48:07.980Z,9.20
2023-04-18T15:50:52.281Z,7.50
2023-04-18T15:53:36.219Z,15.10
2023-04-18T15:56:20.013Z,7.25
2023-04-18T15:59:06.065Z,11.88
2023-04-18T16:01:50.195Z,13.68
2023-04-18T16:04:36.118Z,12.10
2023-04-18T16:07:20.329Z,19.83
2023-04-18T16:10:04.458Z,19.88
2023-04-18T16:12:48.862Z,12.25
2023-04-18T16:15:33.111Z,14.73
2023-04-18T16:18:17.280Z,9.13
2023-04-18T16:21:03.169Z,6.97
2023-04-18T16:23:46.943Z,7.50
2023-04-18T16:26:30.880Z,8.80
2023-04-18T16:29:14.735Z,10.47
2023-04-18T16:31:58.744Z,9.17
2023-04-18T16:34:42.590Z,15.30
2023-04-18T16:37:27.930Z,8.55
2023-04-18T16:40:12.424Z,9.43
2023-04-18T16:42:56.290Z,8.73
2023-04-18T16:45:40.269Z,12.35
2023-04-18T16:48:24.402Z,17.20
2023-04-18T16:51:08.476Z,15.35
2023-04-18T16:53:53.653Z,17.33
2023-04-18T16:56:37.708Z,13.07
2023-04-18T16:59:21.606Z,21.70
2023-04-18T17:02:05.681Z,15.73
2023-04-18T17:04:49.677Z,18.93
2023-04-18T17:07:33.578Z,15.70
2023-04-18T17:10:19.244Z,17.67
2023-04-18T17:13:04.632Z,16.63
2023-04-18T17:15:48.459Z,14.57
2023-04-18T17:18:32.335Z,15.97
2023-04-18T17:21:16.238Z,17.97
2023-04-18T17:24:03.599Z,17.60
2023-04-18T17:26:49.310Z,22.80
2023-04-18T17:29:33.346Z,23.00
2023-04-18T17:32:17.766Z,25.73
2023-04-18T17:35:04.355Z,46.23
2023-04-18T17:37:50.609Z,17.13
2023-04-18T17:40:35.333Z,15.83
2023-04-18T17:43:20.821Z,16.57
2023-04-18T17:46:04.730Z,13.87
2023-04-18T17:48:48.577Z,17.70
2023-04-18T17:51:32.495Z,17.47
2023-04-18T17:54:16.549Z,15.83
2023-04-18T17:57:00.382Z,24.57
2023-04-18T17:59:45.731Z,22.13
2023-04-18T18:02:29.701Z,21.77
2023-04-18T18:05:16.727Z,23.03
2023-04-18T18:08:01.492Z,20.33
2023-04-18T18:10:47.118Z,21.77
2023-04-18T18:13:31.170Z,23.90
2023-04-18T18:16:16.494Z,17.20
2023-04-18T18:19:00.494Z,14.73
2023-04-18T18:21:44.536Z,18.20
2023-04-18T18:24:28.412Z,13.43
2023-04-18T18:27:12.494Z,19.00
2023-04-18T18:29:56.518Z,17.60
2023-04-18T18:32:41.970Z,17.60
2023-04-18T18:35:25.898Z,15.57
2023-04-18T18:38:10.262Z,13.93
2023-04-18T18:40:54.179Z,13.87
2023-04-18T18:43:38.168Z,13.80
2023-04-18T18:46:22.320Z,16.53
2023-04-18T18:49:08.339Z,21.03
2023-04-18T18:51:52.266Z,21.20
2023-04-18T18:54:36.430Z,20.57
2023-04-18T18:57:20.908Z,18.73
2023-04-18T19:00:05.340Z,19.90
2023-04-18T19:02:49.931Z,16.83
2023-04-18T19:05:36.006Z,13.33
2023-04-18T19:08:20.171Z,15.13
2023-04-18T19:11:04.630Z,19.50
2023-04-18T19:13:49.023Z,16.67
2023-04-18T19:16:34.454Z,18.93
2023-04-18T19:19:18.812Z,22.23
2023-04-18T19:22:04.649Z,19.37
2023-04-18T19:24:49.646Z,22.20
2023-04-18T19:27:34.138Z,23.20
2023-04-18T19:30:18.345Z,20.13
2023-04-18T19:33:02.962Z,23.47
2023-04-18T19:35:47.299Z,23.17
2023-04-18T19:38:34.204Z,22.57
2023-04-18T19:41:18.396Z,20.40
2023-04-18T19:44:02.481Z,18.77
2023-04-18T19:46:46.868Z,19.50
2023-04-18T19:49:31.532Z,18.10
2023-04-18T19:52:16.898Z,17.30
2023-04-18T19:55:02.678Z,17.03
2023-04-18T19:57:47.713Z,17.53
2023-04-18T20:00:32.013Z,18.97
2023-04-18T20:03:17.310Z,18.67
2023-04-18T20:06:01.552Z,14.90
2023-04-18T20:08:46.130Z,14.20
2023-04-18T20:11:31.517Z,22.00
2023-04-18T20:14:15.325Z,29.90
2023-04-18T20:16:59.192Z,30.47
2023-04-18T20:19:43.109Z,28.00
2023-04-18T20:22:27.355Z,27.23
2023-04-18T20:25:11.337Z,31.70
2023-04-18T20:27:56.585Z,29.47
2023-04-18T20:30:40.575Z,33.80
2023-04-18T20:33:24.495Z,31.33
2023-04-18T20:36:08.558Z,31.87
2023-04-18T20:38:52.450Z,36.83
2023-04-18T20:41:37.035Z,34.43
2023-04-18T20:44:22.333Z,36.87
2023-04-18T20:47:06.443Z,35.17
2023-04-18T20:49:50.512Z,37.07
2023-04-18T20:52:34.273Z,39.77
2023-04-18T20:55:18.144Z,35.27
2023-04-18T20:58:02.049Z,34.97
2023-04-18T21:00:48.362Z,31.93
2023-04-18T21:03:32.479Z,24.43
2023-04-18T21:06:16.550Z,19.80
2023-04-18T21:09:00.360Z,35.83
2023-04-18T21:11:44.177Z,28.50
2023-04-18T21:14:27.984Z,19.60
2023-04-18T21:17:17.386Z,27.87
2023-04-18T21:20:01.318Z,27.43
2023-04-18T21:22:46.905Z,33.47
2023-04-18T21:25:30.581Z,21.77
2023-04-18T21:28:14.444Z,20.70
2023-04-18T21:30:58.203Z,18.83
2023-04-18T21:33:43.395Z,16.00
2023-04-18T21:36:28.610Z,13.80
2023-04-18T21:39:12.502Z,15.50
2023-04-18T21:41:57.276Z,14.57
2023-04-18T21:44:41.310Z,12.80
2023-04-18T21:47:25.993Z,15.57
2023-04-18T21:50:12.332Z,11.43
2023-04-18T21:52:56.153Z,13.90
2023-04-18T21:55:39.980Z,14.47
2023-04-18T21:58:23.827Z,19.17
2023-04-18T22:01:07.877Z,18.20
2023-04-18T22:03:52.167Z,15.03
2023-04-18T22:06:37.560Z,24.33
2023-04-18T22:09:21.480Z,19.27
2023-04-18T22:12:05.971Z,17.13
2023-04-18T22:14:49.684Z,16.47
2023-04-18T22:17:34.134Z,21.30
2023-04-18T22:20:18.577Z,15.83
2023-04-18T22:23:04.399Z,9.83
2023-04-18T22:25:48.158Z,16.17
2023-04-18T22:28:32.463Z,15.93
2023-04-18T22:31:16.357Z,14.10
2023-04-18T22:34:00.327Z,14.17
2023-04-18T22:36:45.641Z,11.67
2023-04-18T22:39:31.193Z,8.00
2023-04-18T22:42:15.094Z,7.83
2023-04-18T22:44:58.973Z,9.67
2023-04-18T22:47:42.834Z,7.93
2023-04-18T22:50:27.462Z,10.00
2023-04-18T22:53:11.463Z,8.93
2023-04-18T22:55:56.554Z,10.27
2023-04-18T22:58:40.324Z,9.73
2023-04-18T23:01:24.125Z,9.03
2023-04-18T23:04:08.377Z,9.93
2023-04-18T23:06:52.357Z,8.93
2023-04-18T23:09:36.171Z,9.67
2023-04-18T23:12:22.030Z,8.33
2023-04-18T23:15:06.811Z,9.10
2023-04-18T23:17:53.142Z,9.63
2023-04-18T23:20:37.978Z,8.63
2023-04-18T23:23:21.805Z,7.70
2023-04-18T23:26:13.768Z,7.97
2023-04-18T23:28:59.142Z,8.23
2023-04-18T23:31:43.221Z,7.63
2023-04-18T23:34:27.275Z,10.90
2023-04-18T23:37:11.298Z,10.70
2023-04-18T23:39:55.421Z,9.60
2023-04-18T23:42:39.453Z,9.80
2023-04-18T23:45:25.691Z,8.63
2023-04-18T23:48:09.711Z,13.37
2023-04-18T23:50:53.967Z,12.57
2023-04-18T23:53:38.067Z,12.43
2023-04-18T23:56:23.320Z,15.77
2023-04-18T23:59:08.211Z,13.13
